Aho, North Carolina
Current Conditions -  °F | °C
As of 9:55 PM on Monday 22 Dec 2014 (Local Time) from KTNB Reporting Station
Drizzle Drizzle  
Wind Chill: 35°   Ceiling: 300
Heat Index: 35°   Visibility: 3mi
Dew Point: 35°   Wind: 0mph
Humidity: 100%   Direction: NA
Pressure: 29.97"   Gusts: NA
Location:  36.0473°N, 81.8148°W
Report Text: KTNB 230255Z AUTO 00000KT 3SM DZ OVC003 02/02 A2997 RMK AO2 T00170017
Loading
Personal Weather Stations






























Interactive Weather Map New forecast layout! Learn more

10-Day Weather Forecast

Advertisements
Track Severe Weather on mobile